Northern & Central Napa County

32 Stations

15 Minute Data | America/Los_Angeles
as of 5/9/26 4:49 PM PDT
Station Date Time Temp (°F) RH (%) Dew Pt (°F) Wind Spd (mph) Wind Dir (°) Wind Gust (mph) Latest Rain (In) Daily Rain (In) Daily Max Temp (°F) Daily Min Temp (°F)
Calistoga-North 5/9/26 1645 85.8   2.8 43   3 61.0   0.4 - - - 0.00 0.00 89.1   2.7 48.3   3.8
Stags Leap Dist (Chimney Rock) 5/9/26 1645 78.3   4.3 55   7 60.6   0.7 6.5   0.9 SE | 136 12.2   0.2 0.00 0.00 78.9   3.6 45.7   7.1
Diamond Mtn (McEachran) 5/9/26 1645 83.1   2.1 40   10 56.0   4.5 - - - - - 84.3   2.5 50.2   0.5
Diamond Mtn (Schramsberg) 5/9/26 1645 84.4   4.2 39   5 56.9   0.4 - - - 0.00 0.00 85.1   3.8 50.0   0.8
Stags Leap Dist (Silverado Vineyards) 5/9/26 1645 78.3   3.6 48   6 57.3   0.2 5.5   0.8 SE | 133 13.2   1.3 0.00 0.00 78.9   3.6 46.8   5.4
Oak Knoll-East (Ranch 53) 5/9/26 1645 78.3   3.2 46   5 56.0   0.2 5.6   1.3 SSE | 148 13.5   4.5 0.00 0.00 80.4   4.3 47.7   4.9
Rutherford-North (Mee Ln) 5/9/26 1645 80.7   3.5 49   6 59.9   0.2 9.9   2.8 SE | 134 15.3   2.8 0.00 0.00 82.3   3.7 44.6   4.8
Frisinger Napa-NW 5/9/26 1645 79.6   4.5 52   2 60.7   3.2 7.3   1.5 S | 176 12.6   2.5 0.00 0.00 81.7   4.2 47.3   5.5
Napa-North (Ranch 29) 5/9/26 1645 77.4   4.5 51   6 57.9   0.9 4.1   0.1 S | 184 9.9   2.8 0.00 0.00 78.4   4.5 48.8   3.0
St. Helena (NVV Office) 5/9/26 1645 87.5   7.3 - - 2.0   1.5 SSW | 213 6.2   2.4 0.00 0.00 88.7   6.2 49.7   3.4
Crossroads Ranch 5/9/26 1645 80.0   4.0 53   3 61.2   2.3 9.4   1.1 SSE | 147 14.3   0.1 0.00 0.00 80.9   4.4 47.8   5.2
Oakville 5/9/26 1645 79.1   4.0 49   6 58.0   0.3 8.4   0.4 SE | 128 17.0   0.4 0.00 0.00 80.0   3.7 47.4   5.2
OV561-East 5/9/26 1645 81.0   4.1 - - - - - - - 82.6   3.4 48.0   5.4
OV518-West 5/9/26 1645 79.1   4.1 - - - - - - - 80.5   3.5 48.1   4.9
Napa-NW (Ranch 54) 5/9/26 1645 82.3   4.6 43   6 57.7   0.7 1.2   0.5 SE | 137 4.9   0.3 0.00 0.00 84.1   5.3 48.8   3.9
Calistoga (Ranch 78) 5/9/26 1645 84.3   2.8 38   4 55.8   0.1 6.7   1.5 WNW | 294 12.7   4.2 0.00 0.00 86.6   3.1 47.8   4.4
Yountville-SE (Ranch 85) 5/9/26 1645 78.2   3.9 50   7 58.2   0.1 7.0   0.3 SSE | 153 13.3   0.7 0.00 0.00 79.0   4.0 48.0   4.9
Yountville-South (Ranch 87) 5/9/26 1645 79.0   3.2 49   5 58.3   0.2 5.7   0.7 SE | 128 11.8   2.2 0.00 0.00 79.6   3.0 47.8   4.9
Rutherford Hill Estate 5/9/26 1645 82.1   4.9 48   7 60.2   0.9 3.4   0.0 S | 191 11.6   2.6 0.00 0.00 83.4   4.7 50.2   1.2
Rutherford (STS) 5/9/26 1645 82.2   4.9 52   7 62.8   1.1 5.8   0.4 SE | 130 12.0   0.7 0.00 0.00 83.8   4.2 47.0   5.9
Borreo (Soda Canyon) 5/9/26 1645 75.9   4.5 52   7 57.3   0.8 3.2   0.7 SSE | 163 7.6   1.0 0.00 0.00 76.5   3.9 45.4   4.8
Oakville-NE (Ranch 88) 5/9/26 1645 80.8   4.1 46   5 58.4   0.9 7.9   1.4 S | 171 14.7   0.7 0.00 0.00 82.5   4.2 46.5   6.4
Soda Canyon 5/9/26 1645 76.8   4.2 62   5 62.6   1.8 5.7   0.1 SSE | 164 10.4   0.1 0.00 0.00 77.6   4.0 46.8   5.5
Silver Oak OV 5/9/26 1645 79.2   4.2 51   6 59.8   0.8 9.1   0.4 SE | 141 14.2   1.7 0.00 0.00 80.4   4.3 47.4   5.4
Tiara Fria (East St. Helena) 5/9/26 1645 82.6   5.4 46   7 59.9   0.9 5.5   1.1 ESE | 122 11.0   1.1 0.00 0.00 83.5   4.4 50.0   3.0
To Kalon Remote (TKKE) 5/9/26 1645 82.3   4.8 - - - - - - - 83.8   4.5 47.0   6.0
To Kalon 5/9/26 1645 80.0   4.1 50   6 59.7   0.9 8.5   0.8 SE | 140 14.0   0.6 0.00 0.00 80.6   3.2 47.4   5.2
To Kalon Remote (TKN5) 5/9/26 1645 82.0   4.8 - - - - - - - 84.6   4.5 47.5   5.6
St. Helena-North 5/9/26 1645 87.5   7.9 30   19 52.6   6.3 2.0   5.0 WNW | 297 5.9   6.4 0.00 0.00 87.9   7.4 49.0   3.8
Twomey Calistoga 5/9/26 1645 84.2   2.9 40   5 57.2   0.4 5.2   1.3 WNW | 300 10.4   1.7 0.00 0.00 85.5   2.9 45.8   5.1
Wappo Hill Floor 5/9/26 1645 79.7   4.2 48   7 58.0   0.1 6.5   0.4 SE | 138 10.2   2.5 0.00 0.00 80.0   4.2 44.9   6.5
Yountville (Ranch 67) 5/9/26 1645 79.1   4.9 47   5 57.3   1.6 5.0   1.3 SE | 141 11.0   3.1 0.00 0.00 79.2   4.3 46.9   5.3
Max     87.5 62 62.8 9.9 - 17.0 0.00 0.00 89.1 50.2
Avg     81.0 47 58.6 5.9 - 11.6 0.00 - - -
Min     75.9 30 52.6 1.2 - 4.9 0.00 0.00 76.5 44.6